createdAt,value
2019-02-20T00:02:16.449Z,85.45
2019-02-20T00:07:40.947Z,85.46
2019-02-20T00:13:05.645Z,85.40
2019-02-20T00:18:29.990Z,85.12
2019-02-20T00:23:53.826Z,84.57
2019-02-20T00:29:17.951Z,84.34
2019-02-20T00:34:42.356Z,84.17
2019-02-20T00:40:07.641Z,84.17
2019-02-20T00:45:53.974Z,83.92
2019-02-20T00:51:42.971Z,84.08
2019-02-20T00:57:07.054Z,83.90
2019-02-20T01:02:31.515Z,83.88
2019-02-20T01:07:56.697Z,83.85
2019-02-20T01:13:21.843Z,83.34
2019-02-20T01:18:46.707Z,83.17
2019-02-20T01:24:11.263Z,82.95
2019-02-20T01:29:35.406Z,82.98
2019-02-20T01:34:59.827Z,82.67
2019-02-20T01:40:24.093Z,82.04
2019-02-20T01:45:47.990Z,81.28
2019-02-20T01:51:12.038Z,81.50
2019-02-20T01:56:35.919Z,81.26
2019-02-20T02:01:59.929Z,81.06
2019-02-20T02:07:23.826Z,80.82
2019-02-20T02:12:47.941Z,80.48
2019-02-20T02:18:11.744Z,79.79
2019-02-20T02:23:36.085Z,79.12
2019-02-20T02:29:00.617Z,79.29
2019-02-20T02:34:24.649Z,78.75
2019-02-20T02:39:48.929Z,78.77
2019-02-20T02:45:13.805Z,79.10
2019-02-20T02:50:39.193Z,78.51
2019-02-20T02:56:02.771Z,78.03
2019-02-20T03:01:26.515Z,77.79
2019-02-20T03:06:50.283Z,77.26
2019-02-20T03:12:14.232Z,77.37
2019-02-20T03:17:38.969Z,77.32
2019-02-20T03:23:03.693Z,77.94
2019-02-20T03:28:28.500Z,78.12
2019-02-20T03:33:53.510Z,78.31
2019-02-20T03:39:18.061Z,78.23
2019-02-20T03:44:42.480Z,78.54
2019-02-20T03:50:07.060Z,79.04
2019-02-20T03:55:31.878Z,79.88
2019-02-20T04:00:55.685Z,80.48
2019-02-20T04:06:20.352Z,81.05
2019-02-20T04:11:44.045Z,81.36
2019-02-20T04:17:08.168Z,81.93
2019-02-20T04:22:32.524Z,82.03
2019-02-20T04:27:56.237Z,81.56
2019-02-20T04:33:21.045Z,81.35
2019-02-20T04:38:45.966Z,81.36
2019-02-20T04:44:10.598Z,81.11
2019-02-20T04:49:34.590Z,81.12
2019-02-20T04:54:58.839Z,80.29
2019-02-20T05:00:22.779Z,79.68
2019-02-20T05:05:47.318Z,79.07
2019-02-20T05:11:13.050Z,78.57
2019-02-20T05:16:37.722Z,78.43
2019-02-20T05:22:02.567Z,78.15
2019-02-20T05:27:26.410Z,77.54
2019-02-20T05:32:50.838Z,77.25
2019-02-20T05:38:15.424Z,76.87
2019-02-20T05:43:40.209Z,76.69
2019-02-20T05:49:05.259Z,76.50
2019-02-20T05:54:34.602Z,76.70
2019-02-20T05:59:55.624Z,75.86
2019-02-20T06:05:19.932Z,76.04
2019-02-20T06:10:44.019Z,76.21
2019-02-20T06:16:08.122Z,75.89
2019-02-20T06:21:32.042Z,75.77
2019-02-20T06:26:56.430Z,76.04
2019-02-20T06:32:21.075Z,75.92
2019-02-20T06:37:45.287Z,75.93
2019-02-20T06:43:10.725Z,75.36
2019-02-20T06:48:35.423Z,75.21
2019-02-20T06:53:59.366Z,74.60
2019-02-20T06:59:23.738Z,74.74
2019-02-20T07:05:40.187Z,73.91
2019-02-20T07:11:57.552Z,73.66
2019-02-20T07:17:35.492Z,72.38
2019-02-20T07:23:20.068Z,72.53
2019-02-20T07:29:16.142Z,72.47
2019-02-20T07:34:41.086Z,72.94
2019-02-20T07:40:06.565Z,72.50
2019-02-20T07:45:30.710Z,72.34
2019-02-20T07:50:55.143Z,72.69
2019-02-20T07:56:19.811Z,72.42
2019-02-20T08:01:43.728Z,72.28
2019-02-20T08:07:07.709Z,71.59
2019-02-20T08:12:32.727Z,69.97
2019-02-20T08:17:57.235Z,69.87
2019-02-20T08:23:21.538Z,69.71
2019-02-20T08:28:45.750Z,70.04
2019-02-20T08:34:10.220Z,70.50
2019-02-20T08:39:34.427Z,70.56
2019-02-20T08:44:58.746Z,69.45
2019-02-20T08:50:23.013Z,68.56
2019-02-20T08:55:47.769Z,68.06
2019-02-20T09:01:11.834Z,67.70
2019-02-20T09:06:35.536Z,66.80
2019-02-20T09:12:00.283Z,66.21
2019-02-20T09:17:24.300Z,65.84
2019-02-20T09:22:48.843Z,65.19
2019-02-20T09:28:12.635Z,65.61
2019-02-20T09:33:37.055Z,65.71
2019-02-20T09:39:39.981Z,66.55
2019-02-20T09:45:05.082Z,66.81
2019-02-20T09:50:29.319Z,66.66
2019-02-20T09:55:53.056Z,66.76
2019-02-20T10:01:17.440Z,66.70
2019-02-20T10:06:41.989Z,65.93
2019-02-20T10:12:06.036Z,65.24
2019-02-20T10:17:30.662Z,65.77
2019-02-20T10:22:55.617Z,65.86
2019-02-20T10:28:19.483Z,65.66
2019-02-20T10:33:43.090Z,65.75
2019-02-20T10:39:07.840Z,65.60
2019-02-20T10:44:32.394Z,64.30
2019-02-20T10:49:56.719Z,63.38
2019-02-20T10:55:21.650Z,63.13
2019-02-20T11:00:45.746Z,62.82
2019-02-20T11:06:09.669Z,63.01
2019-02-20T11:11:34.082Z,62.43
2019-02-20T11:16:57.718Z,61.82
2019-02-20T11:22:22.364Z,61.78
2019-02-20T11:27:47.008Z,61.13
2019-02-20T11:33:12.629Z,60.18
2019-02-20T11:38:38.367Z,59.92
2019-02-20T11:44:03.141Z,60.27
2019-02-20T11:49:27.510Z,60.56
2019-02-20T11:54:52.221Z,60.64
2019-02-20T12:00:19.938Z,60.67
2019-02-20T12:05:44.649Z,61.36
2019-02-20T12:11:09.321Z,61.13
2019-02-20T12:16:34.032Z,60.73
2019-02-20T12:21:57.994Z,60.68
2019-02-20T12:27:21.766Z,59.60
2019-02-20T12:32:46.484Z,59.57
2019-02-20T12:38:10.958Z,56.72
2019-02-20T12:43:35.842Z,52.87
2019-02-20T12:49:00.397Z,54.89
2019-02-20T12:54:24.941Z,57.53
2019-02-20T12:59:48.757Z,59.07
2019-02-20T13:05:13.588Z,57.57
2019-02-20T13:10:38.222Z,56.61
2019-02-20T13:16:09.449Z,55.07
2019-02-20T13:21:29.470Z,53.84
2019-02-20T13:26:53.826Z,55.61
2019-02-20T13:32:18.053Z,56.67
2019-02-20T13:37:42.730Z,56.60
2019-02-20T13:43:06.562Z,57.88
2019-02-20T13:48:31.194Z,56.93
2019-02-20T13:53:55.233Z,56.60
2019-02-20T13:59:19.207Z,55.34
2019-02-20T14:04:43.709Z,55.24
2019-02-20T14:10:10.014Z,55.13
2019-02-20T14:15:35.179Z,55.12
2019-02-20T14:21:00.826Z,54.89
2019-02-20T14:26:24.976Z,55.85
2019-02-20T14:31:49.706Z,56.07
2019-02-20T14:37:14.259Z,56.96
2019-02-20T14:42:38.029Z,57.52
2019-02-20T14:48:02.855Z,57.71
2019-02-20T14:53:27.538Z,58.99
2019-02-20T14:58:51.982Z,59.56
2019-02-20T15:04:16.357Z,59.34
2019-02-20T15:09:40.955Z,59.78
2019-02-20T15:15:10.623Z,59.39
2019-02-20T15:20:31.431Z,59.86
2019-02-20T15:25:55.898Z,59.98
2019-02-20T15:31:21.407Z,59.98
2019-02-20T15:36:45.264Z,60.57
2019-02-20T15:42:09.744Z,61.29
2019-02-20T15:47:33.906Z,61.50
2019-02-20T15:52:58.593Z,61.13
2019-02-20T15:58:22.963Z,61.63
2019-02-20T16:03:46.890Z,62.06
2019-02-20T16:09:10.679Z,62.25
2019-02-20T16:14:36.608Z,62.50
2019-02-20T16:20:01.247Z,62.64
2019-02-20T16:25:25.633Z,62.82
2019-02-20T16:30:49.445Z,63.15
2019-02-20T16:36:13.960Z,63.47
2019-02-20T16:41:38.281Z,63.98
2019-02-20T16:47:01.901Z,64.11
2019-02-20T16:52:25.506Z,64.32
2019-02-20T16:57:56.213Z,64.43
2019-02-20T17:03:15.625Z,64.66
2019-02-20T17:08:39.612Z,64.93
2019-02-20T17:14:04.347Z,65.45
2019-02-20T17:19:29.012Z,65.27
2019-02-20T17:24:53.797Z,65.49
2019-02-20T17:30:17.548Z,65.66
2019-02-20T17:35:42.528Z,65.79
2019-02-20T17:41:07.072Z,66.08
2019-02-20T17:46:31.016Z,66.39
2019-02-20T17:51:55.598Z,66.32
2019-02-20T17:57:19.399Z,66.62
2019-02-20T18:02:43.378Z,66.91
2019-02-20T18:08:08.001Z,67.10
2019-02-20T18:13:33.010Z,67.23
2019-02-20T18:18:56.808Z,67.38
2019-02-20T18:24:21.699Z,67.85
2019-02-20T18:29:46.355Z,68.16
2019-02-20T18:35:11.096Z,68.42
2019-02-20T18:40:35.777Z,68.85
2019-02-20T18:46:00.252Z,69.34
2019-02-20T18:51:24.777Z,69.36
2019-02-20T18:56:49.584Z,68.84
2019-02-20T19:02:14.475Z,68.71
2019-02-20T19:07:39.025Z,68.49
2019-02-20T19:14:09.046Z,68.41
2019-02-20T19:19:47.675Z,68.08
2019-02-20T19:26:02.771Z,67.56
2019-02-20T19:31:54.587Z,67.50
2019-02-20T19:37:31.586Z,67.90
2019-02-20T19:43:47.106Z,68.41
2019-02-20T19:49:43.364Z,68.59
2019-02-20T19:55:38.200Z,68.36
2019-02-20T20:01:12.953Z,68.63
2019-02-20T20:06:51.966Z,68.94
2019-02-20T20:12:51.940Z,69.01
2019-02-20T20:18:53.979Z,69.10
2019-02-20T20:24:41.502Z,69.02
2019-02-20T20:30:56.798Z,69.24
2019-02-20T20:36:30.825Z,69.18
2019-02-20T20:42:19.500Z,69.18
2019-02-20T20:48:11.230Z,69.58
2019-02-20T20:53:59.564Z,69.73
2019-02-20T20:59:48.968Z,69.75
2019-02-20T21:06:15.831Z,70.19
2019-02-20T21:12:24.992Z,70.20
2019-02-20T21:18:13.681Z,70.15
2019-02-20T21:24:24.664Z,70.12
2019-02-20T21:29:57.647Z,70.32
2019-02-20T21:35:30.562Z,70.54
2019-02-20T21:41:13.338Z,70.70
2019-02-20T21:46:51.176Z,70.73
2019-02-20T21:52:46.030Z,70.88
2019-02-20T21:58:33.177Z,71.04
2019-02-20T22:04:09.138Z,71.21
2019-02-20T22:10:27.172Z,71.39
2019-02-20T22:15:59.921Z,71.75
2019-02-20T22:21:53.579Z,72.48
2019-02-20T22:27:42.978Z,72.72
2019-02-20T22:33:33.657Z,73.59
2019-02-20T22:39:15.094Z,73.50
2019-02-20T22:45:22.046Z,74.60
2019-02-20T22:50:52.852Z,74.64
2019-02-20T22:56:48.135Z,74.84
2019-02-20T23:02:45.374Z,74.96
2019-02-20T23:08:20.190Z,74.87
2019-02-20T23:14:16.455Z,75.21
2019-02-20T23:19:40.265Z,75.18
2019-02-20T23:25:04.882Z,75.37
2019-02-20T23:30:28.839Z,75.25
2019-02-20T23:35:53.292Z,74.91
2019-02-20T23:41:18.180Z,74.77
2019-02-20T23:46:42.012Z,74.83
2019-02-20T23:52:05.929Z,74.85
2019-02-20T23:57:29.780Z,75.00
